Time;durP1;ratioP1;P1;durP2;ratioP2;P2;SDS_P1;SDS_P2;PMS_P1;PMS_P2;Temp;Humidity;BMP_temperature;BMP_pressure;BME280_temperature;BME280_humidity;BME280_pressure;Samples;Min_cycle;Max_cycle;Signal;HPM_P1;HPM_P2
2022/11/20 00:00:51;;;;;;;;;;;;;;;7.47;95.17;98833.59;10221689;23;19924;-78
2022/11/20 00:04:52;;;;;;;;;;;;;;;7.49;95.20;98846.50;10231424;23;19927;-78
2022/11/20 00:08:55;;;;;;;;;;;;;;;7.49;94.93;98842.19;10228714;23;19947;-78
2022/11/20 00:12:57;;;;;;;;;;;;;;;7.52;95.46;98838.75;10205012;23;20011;-78
2022/11/20 00:16:59;;;;;;;;;;;;;;;7.53;95.33;98837.88;10222947;23;20471;-78
2022/11/20 00:21:04;;;;;;;;;;;;;;;7.55;95.36;98833.59;10230458;23;19934;-78
2022/11/20 00:25:06;;;;;;;;;;;;;;;7.53;95.67;98833.56;10229700;23;20260;-78
2022/11/20 00:29:09;;;;;;;;;;;;;;;7.54;95.30;98839.59;10204745;23;19924;-78
2022/11/20 00:33:10;;;;;;;;;;;;;;;7.50;95.27;98837.88;10223809;22;19924;-77
2022/11/20 00:37:11;;;;;;;;;;;;;;;7.55;95.41;98842.22;10256968;23;20479;-78
2022/11/20 00:41:14;;;;;;;;;;;;;;;7.51;95.52;98837.03;10259642;23;19920;-78
2022/11/20 00:45:16;;;;;;;;;;;;;;;7.55;95.57;98846.53;10252443;23;20015;-77
2022/11/20 00:49:18;;;;;;;;;;;;;;;7.54;95.53;98831.84;10283676;23;19955;-77
2022/11/20 00:53:20;;;;;;;;;;;;;;;7.57;95.51;98840.47;10233310;23;19948;-77
2022/11/20 00:57:21;;;;;;;;;;;;;;;7.56;95.00;98838.75;10234512;23;20687;-77
2022/11/20 01:01:24;;;;;;;;;;;;;;;7.59;94.91;98845.66;10252023;23;19924;-78
2022/11/20 01:05:26;;;;;;;;;;;;;;;7.58;95.11;98841.34;10259526;23;19928;-78
2022/11/20 01:09:27;;;;;;;;;;;;;;;7.54;95.18;98844.75;10259263;23;19924;-78
2022/11/20 01:13:38;;;;;;;;;;;;;;;7.53;95.08;98843.91;10234433;23;20281;-78
2022/11/20 01:17:40;;;;;;;;;;;;;;;7.55;95.05;98847.38;10250124;23;19978;-78
2022/11/20 01:21:43;;;;;;;;;;;;;;;7.56;95.45;98850.81;10229388;23;19952;-78
2022/11/20 01:25:44;;;;;;;;;;;;;;;7.57;95.42;98842.19;10253576;23;19985;-78
2022/11/20 01:29:46;;;;;;;;;;;;;;;7.52;94.71;98841.31;10254161;23;19924;-78
2022/11/20 01:33:48;;;;;;;;;;;;;;;7.57;94.91;98837.91;10222327;23;19924;-78
2022/11/20 01:37:50;;;;;;;;;;;;;;;7.55;94.94;98846.53;10227012;23;19928;-77
2022/11/20 01:46:22;;;;;;;;;;;;;;;7.50;95.00;98841.31;10245280;23;19946;-77
2022/11/20 01:50:26;;;;;;;;;;;;;;;7.46;94.28;98837.03;10253482;23;19924;-78
2022/11/20 01:54:40;;;;;;;;;;;;;;;7.46;94.71;98837.03;10229881;23;19923;-78
2022/11/20 01:58:46;;;;;;;;;;;;;;;7.49;94.67;98842.19;10253162;23;19978;-78
2022/11/20 02:02:51;;;;;;;;;;;;;;;7.50;94.72;98843.91;10245099;23;19923;-78
2022/11/20 02:07:00;;;;;;;;;;;;;;;7.49;94.17;98842.19;10254226;23;19928;-78
2022/11/20 02:11:01;;;;;;;;;;;;;;;7.51;94.48;98840.47;10253449;23;19978;-78
2022/11/20 02:15:04;;;;;;;;;;;;;;;7.46;94.35;98841.34;10247960;23;19920;-77
2022/11/20 02:19:08;;;;;;;;;;;;;;;7.45;94.46;98835.31;10226877;23;19924;-78
2022/11/20 02:23:16;;;;;;;;;;;;;;;7.46;94.08;98837.03;10228119;23;19950;-78
2022/11/20 02:27:17;;;;;;;;;;;;;;;7.47;94.14;98831.00;10279662;23;19934;-78
2022/11/20 02:31:19;;;;;;;;;;;;;;;7.46;94.33;98831.00;10246015;23;20223;-78
2022/11/20 02:35:23;;;;;;;;;;;;;;;7.50;94.03;98828.41;10203019;23;19983;-78
2022/11/20 02:39:27;;;;;;;;;;;;;;;7.53;93.57;98830.13;10203938;23;20464;-77
2022/11/20 02:43:28;;;;;;;;;;;;;;;7.51;93.80;98819.81;10228634;23;19960;-77
2022/11/20 02:47:30;;;;;;;;;;;;;;;7.54;93.67;98821.50;10196110;23;19932;-78
2022/11/20 02:51:31;;;;;;;;;;;;;;;7.57;93.78;98822.41;10229819;23;19921;-78
2022/11/20 02:55:33;;;;;;;;;;;;;;;7.56;93.10;98812.06;10203910;23;20015;-78
2022/11/20 02:59:34;;;;;;;;;;;;;;;7.54;92.98;98808.59;10228808;23;19978;-78
2022/11/20 03:03:36;;;;;;;;;;;;;;;7.51;92.71;98811.19;10198744;23;19990;-78
2022/11/20 03:07:37;;;;;;;;;;;;;;;7.52;93.08;98802.56;10207366;23;20330;-78
2022/11/20 03:11:39;;;;;;;;;;;;;;;7.55;93.11;98800.03;10208141;23;19920;-78
2022/11/20 03:15:40;;;;;;;;;;;;;;;7.51;92.50;98804.31;10225858;23;20216;-77
2022/11/20 03:19:42;;;;;;;;;;;;;;;7.54;92.67;98800.84;10232786;23;19947;-78
2022/11/20 03:23:43;;;;;;;;;;;;;;;7.50;92.26;98796.56;10207281;23;19924;-77
2022/11/20 03:27:44;;;;;;;;;;;;;;;7.54;92.38;98785.34;10231836;23;19928;-78
2022/11/20 03:31:46;;;;;;;;;;;;;;;7.53;92.87;98793.97;10224059;23;20011;-78
2022/11/20 03:35:48;;;;;;;;;;;;;;;7.49;92.64;98793.13;10206023;23;19924;-78
2022/11/20 03:39:49;;;;;;;;;;;;;;;7.53;92.82;98784.50;10206280;23;20217;-78
2022/11/20 03:43:51;;;;;;;;;;;;;;;7.50;92.39;98791.41;10232878;23;19986;-78
2022/11/20 03:47:52;;;;;;;;;;;;;;;7.51;91.96;98790.53;10225541;23;19955;-78
2022/11/20 03:51:54;;;;;;;;;;;;;;;7.55;92.85;98789.69;10235008;23;19959;-78
2022/11/20 03:55:55;;;;;;;;;;;;;;;7.52;92.41;98787.09;10235957;23;19981;-78
2022/11/20 03:59:57;;;;;;;;;;;;;;;7.53;92.66;98789.66;10209924;23;20011;-78
2022/11/20 04:03:58;;;;;;;;;;;;;;;7.49;93.20;98787.94;10199885;23;19991;-78
2022/11/20 04:08:00;;;;;;;;;;;;;;;7.53;93.58;98792.25;10207318;23;20441;-78
2022/11/20 04:12:01;;;;;;;;;;;;;;;7.50;93.43;98784.50;10232213;23;19943;-78
2022/11/20 04:16:03;;;;;;;;;;;;;;;7.50;93.65;98789.66;10199127;23;20269;-78
2022/11/20 04:20:05;;;;;;;;;;;;;;;7.53;94.12;98786.22;10230452;23;19928;-78
2022/11/20 04:24:07;;;;;;;;;;;;;;;7.54;94.53;98791.41;10206687;23;19935;-78
2022/11/20 04:28:08;;;;;;;;;;;;;;;7.56;94.56;98788.81;10205727;23;19920;-78
2022/11/20 04:32:09;;;;;;;;;;;;;;;7.51;94.64;98791.38;10198617;23;19940;-78
2022/11/20 04:36:12;;;;;;;;;;;;;;;7.53;94.76;98789.66;10205410;23;19975;-78
2022/11/20 04:40:14;;;;;;;;;;;;;;;7.53;94.66;98794.81;10231678;23;19920;-78
2022/11/20 04:44:15;;;;;;;;;;;;;;;7.53;94.79;98787.06;10254370;23;19938;-78
2022/11/20 04:48:16;;;;;;;;;;;;;;;7.56;94.90;98791.41;10222287;23;19931;-78
2022/11/20 04:52:18;;;;;;;;;;;;;;;7.61;94.83;98791.38;10206071;23;20299;-78
2022/11/20 04:56:19;;;;;;;;;;;;;;;7.61;94.63;98794.81;10206383;23;19977;-78
2022/11/20 05:00:21;;;;;;;;;;;;;;;7.64;94.63;98792.22;10229487;23;19924;-78
2022/11/20 05:04:22;;;;;;;;;;;;;;;7.64;94.79;98796.53;10205950;23;20498;-78
2022/11/20 05:08:24;;;;;;;;;;;;;;;7.66;94.37;98797.41;10230352;23;19932;-78
2022/11/20 05:12:26;;;;;;;;;;;;;;;7.66;94.70;98799.97;10230446;23;19928;-78
2022/11/20 05:16:27;;;;;;;;;;;;;;;7.66;94.34;98792.22;10222841;23;19951;-78
2022/11/20 05:20:28;;;;;;;;;;;;;;;7.62;94.47;98791.38;10229125;23;19924;-78
2022/11/20 05:24:30;;;;;;;;;;;;;;;7.63;94.49;98792.25;10205583;23;20003;-78
2022/11/20 05:28:32;;;;;;;;;;;;;;;7.64;94.53;98789.66;10203574;23;19986;-78
2022/11/20 05:32:34;;;;;;;;;;;;;;;7.69;94.93;98792.22;10221176;23;19924;-78
2022/11/20 05:36:35;;;;;;;;;;;;;;;7.71;95.38;98788.75;10227881;23;19950;-78
2022/11/20 05:40:36;;;;;;;;;;;;;;;7.70;94.59;98792.19;10204552;23;20030;-78
2022/11/20 05:44:38;;;;;;;;;;;;;;;7.72;94.98;98787.03;10229298;23;19931;-78
2022/11/20 05:48:40;;;;;;;;;;;;;;;7.71;94.66;98783.59;10195487;23;19928;-78
2022/11/20 05:52:42;;;;;;;;;;;;;;;7.74;95.04;98801.69;10228514;23;19971;-78
2022/11/20 05:56:43;;;;;;;;;;;;;;;7.75;95.01;98787.91;10229226;23;20351;-78
2022/11/20 06:00:44;;;;;;;;;;;;;;;7.77;94.89;98788.75;10197058;23;19935;-78
2022/11/20 06:04:46;;;;;;;;;;;;;;;7.77;94.61;98790.47;10204073;23;20649;-78
2022/11/20 06:08:47;;;;;;;;;;;;;;;7.75;94.25;98792.22;10204161;23;19959;-78
2022/11/20 06:12:49;;;;;;;;;;;;;;;7.72;94.10;98795.66;10203469;23;20232;-78
2022/11/20 06:16:51;;;;;;;;;;;;;;;7.75;94.52;98798.25;10203701;23;19928;-78
2022/11/20 06:20:58;;;;;;;;;;;;;;;7.75;94.39;98800.81;10202954;23;20362;-78
2022/11/20 06:24:59;;;;;;;;;;;;;;;7.75;94.21;98807.72;10204523;23;19955;-78
2022/11/20 06:29:01;;;;;;;;;;;;;;;7.76;93.97;98801.69;10227858;23;19982;-77
2022/11/20 06:33:02;;;;;;;;;;;;;;;7.76;93.90;98804.28;10218046;23;19962;-77
2022/11/20 06:37:04;;;;;;;;;;;;;;;7.73;94.37;98805.13;10200179;23;19921;-77
2022/11/20 06:41:16;;;;;;;;;;;;;;;7.69;94.83;98800.81;10225235;23;19924;-77
2022/11/20 06:45:17;;;;;;;;;;;;;;;7.68;94.88;98803.41;10218223;23;20336;-76
2022/11/20 06:49:18;;;;;;;;;;;;;;;7.68;95.65;98806.84;10198457;23;19975;-76
2022/11/20 06:53:21;;;;;;;;;;;;;;;7.65;95.75;98804.28;10222891;23;19924;-76
2022/11/20 06:57:22;;;;;;;;;;;;;;;7.64;95.91;98814.63;10197871;23;19956;-77
2022/11/20 07:01:24;;;;;;;;;;;;;;;7.57;95.93;98819.81;10186864;23;19924;-76
2022/11/20 07:05:25;;;;;;;;;;;;;;;7.56;96.26;98822.41;10221583;23;20366;-76
2022/11/20 07:09:27;;;;;;;;;;;;;;;7.56;96.43;98830.16;10222008;23;19924;-78
2022/11/20 07:13:28;;;;;;;;;;;;;;;7.57;96.53;98834.47;10199236;23;19959;-78
2022/11/20 07:17:30;;;;;;;;;;;;;;;7.56;97.21;98841.34;10195915;23;19924;-78
2022/11/20 07:21:31;;;;;;;;;;;;;;;7.56;96.92;98845.66;10229376;23;19965;-78
2022/11/20 07:25:33;;;;;;;;;;;;;;;7.50;96.73;98858.56;10229553;23;19928;-77
2022/11/20 07:29:34;;;;;;;;;;;;;;;7.50;96.73;98854.25;10232442;23;19924;-78
2022/11/20 07:33:35;;;;;;;;;;;;;;;7.50;96.42;98859.41;10204485;23;20270;-78
2022/11/20 07:37:37;;;;;;;;;;;;;;;7.52;96.56;98862.00;10255271;23;19924;-78
2022/11/20 07:41:38;;;;;;;;;;;;;;;7.56;96.42;98866.31;10231557;23;20007;-78
2022/11/20 07:45:40;;;;;;;;;;;;;;;7.57;96.16;98873.22;10248230;23;19966;-78
2022/11/20 07:49:41;;;;;;;;;;;;;;;7.55;96.09;98874.94;10280892;23;19920;-78
2022/11/20 07:53:42;;;;;;;;;;;;;;;7.57;95.62;98883.53;10257200;23;19974;-79
2022/11/20 07:57:53;;;;;;;;;;;;;;;7.63;95.97;98886.09;10256883;23;19970;-79
2022/11/20 08:01:55;;;;;;;;;;;;;;;7.69;95.57;98888.69;10249532;23;19974;-79
2022/11/20 08:05:58;;;;;;;;;;;;;;;7.73;95.71;98882.66;10255962;23;19924;-79
2022/11/20 08:10:00;;;;;;;;;;;;;;;7.74;95.18;98883.53;10255348;23;20523;-79
2022/11/20 08:14:13;;;;;;;;;;;;;;;7.73;94.79;98895.59;10230746;23;19963;-79
2022/11/20 08:18:14;;;;;;;;;;;;;;;7.70;93.97;98892.97;10249375;23;19920;-79
2022/11/20 08:22:31;;;;;;;;;;;;;;;7.72;94.06;98906.78;10234257;23;19923;-79
2022/11/20 08:26:33;;;;;;;;;;;;;;;7.75;93.98;98905.91;10256187;23;19923;-79
2022/11/20 08:30:35;;;;;;;;;;;;;;;7.75;94.44;98905.91;10272861;23;19970;-79
2022/11/20 08:34:37;;;;;;;;;;;;;;;7.83;94.21;98912.78;10230059;23;19939;-78
2022/11/20 08:38:39;;;;;;;;;;;;;;;7.89;92.97;98899.84;10229747;23;19943;-78
2022/11/20 08:42:50;;;;;;;;;;;;;;;7.96;92.31;98908.47;10279823;23;20014;-78
2022/11/20 08:46:51;;;;;;;;;;;;;;;8.04;91.62;98913.63;10247315;23;19924;-79
2022/11/20 08:50:53;;;;;;;;;;;;;;;8.10;91.93;98917.06;10255577;23;19924;-79
2022/11/20 08:54:54;;;;;;;;;;;;;;;8.11;90.27;98915.34;10255130;23;20011;-79
2022/11/20 08:58:56;;;;;;;;;;;;;;;8.10;89.45;98917.06;10227781;23;20288;-79
2022/11/20 09:03:17;;;;;;;;;;;;;;;8.14;89.50;98921.34;10224482;23;20299;-78
2022/11/20 09:07:19;;;;;;;;;;;;;;;8.13;89.23;98919.63;10252797;23;19924;-79
2022/11/20 09:11:21;;;;;;;;;;;;;;;8.21;89.49;98922.19;10253955;23;19927;-79
2022/11/20 09:15:23;;;;;;;;;;;;;;;8.28;88.72;98923.91;10252924;23;20706;-79
2022/11/20 09:19:25;;;;;;;;;;;;;;;8.39;88.65;98926.47;10253733;23;20690;-78
2022/11/20 09:23:37;;;;;;;;;;;;;;;8.56;87.59;98931.59;10231063;23;19927;-78
2022/11/20 09:27:38;;;;;;;;;;;;;;;8.61;86.28;98922.94;10250108;23;20574;-79
2022/11/20 09:31:39;;;;;;;;;;;;;;;8.68;85.82;98924.66;10243532;23;20427;-78
2022/11/20 09:35:41;;;;;;;;;;;;;;;8.54;84.53;98936.78;10276090;23;20011;-78
2022/11/20 09:39:43;;;;;;;;;;;;;;;8.37;84.36;98934.25;10248068;23;19931;-78
2022/11/20 09:44:01;;;;;;;;;;;;;;;8.36;84.26;98931.66;10275278;23;20189;-78
2022/11/20 09:48:16;;;;;;;;;;;;;;;8.51;85.29;98923.00;10241857;23;19923;-79
2022/11/20 09:52:26;;;;;;;;;;;;;;;8.88;84.30;98928.88;10249722;23;19927;-79
2022/11/20 09:56:28;;;;;;;;;;;;;;;9.28;83.30;98919.13;10251506;23;20437;-79
2022/11/20 10:00:30;;;;;;;;;;;;;;;9.32;81.91;98920.81;10260316;23;19981;-79
2022/11/20 10:04:33;;;;;;;;;;;;;;;9.22;80.75;98919.19;10249718;23;19924;-79
2022/11/20 10:08:52;;;;;;;;;;;;;;;9.19;82.06;98920.06;10248423;23;20521;-78
2022/11/20 10:13:12;;;;;;;;;;;;;;;9.09;81.81;98916.66;10224237;23;19931;-77
2022/11/20 10:17:24;;;;;;;;;;;;;;;8.94;80.93;98911.56;10217866;23;19947;-78
2022/11/20 10:21:29;;;;;;;;;;;;;;;9.04;81.73;98904.63;10225494;23;19927;-79
2022/11/20 10:25:45;;;;;;;;;;;;;;;9.16;81.15;98901.97;10224368;23;19959;-78
2022/11/20 10:29:53;;;;;;;;;;;;;;;8.99;78.78;98901.22;10223701;23;20343;-79
2022/11/20 10:33:56;;;;;;;;;;;;;;;9.07;80.54;98902.00;10242617;23;19955;-79
2022/11/20 10:38:25;;;;;;;;;;;;;;;9.26;80.01;98893.25;10250394;23;19931;-78
2022/11/20 10:42:44;;;;;;;;;;;;;;;9.25;79.13;98894.13;10250163;23;20007;-79
2022/11/20 10:46:46;;;;;;;;;;;;;;;9.18;76.72;98884.69;10244630;23;20604;-79
2022/11/20 10:50:56;;;;;;;;;;;;;;;9.17;77.42;98889.88;10249501;23;19981;-78
2022/11/20 10:54:57;;;;;;;;;;;;;;;9.14;77.70;98882.97;10249336;23;20011;-78
2022/11/20 10:59:22;;;;;;;;;;;;;;;9.07;76.56;98876.97;10229024;23;19920;-78
2022/11/20 11:03:27;;;;;;;;;;;;;;;9.27;76.79;98879.41;10247273;23;19998;-79
2022/11/20 11:07:36;;;;;;;;;;;;;;;9.28;75.58;98881.13;10230227;23;19920;-79
2022/11/20 11:11:38;;;;;;;;;;;;;;;9.20;73.83;98875.16;10256190;23;19924;-80
2022/11/20 11:15:40;;;;;;;;;;;;;;;9.24;74.58;98863.91;10228663;23;19920;-84
2022/11/20 11:19:42;;;;;;;;;;;;;;;9.22;73.63;98857.03;10284734;23;19924;-81
2022/11/20 11:23:44;;;;;;;;;;;;;;;9.25;73.94;98855.25;10284991;23;19943;-83
2022/11/20 11:27:49;;;;;;;;;;;;;;;9.30;73.74;98848.31;10260475;23;19947;-83
2022/11/20 11:31:51;;;;;;;;;;;;;;;9.43;72.40;98843.88;10277067;23;19924;-81
2022/11/20 11:35:58;;;;;;;;;;;;;;;9.53;72.09;98837.75;10205292;23;19924;-79
2022/11/20 11:40:02;;;;;;;;;;;;;;;9.51;70.35;98833.44;10206582;23;19936;-80
2022/11/20 11:48:58;;;;;;;;;;;;;;;9.52;69.94;98823.09;10224223;23;20476;-81
2022/11/20 11:53:03;;;;;;;;;;;;;;;9.53;70.28;98818.75;10208519;23;20006;-80
2022/11/20 11:57:10;;;;;;;;;;;;;;;9.55;70.56;98824.78;10209624;23;19920;-82
2022/11/20 12:01:11;;;;;;;;;;;;;;;9.59;70.84;98818.69;10227543;23;19925;-81
2022/11/20 12:05:32;;;;;;;;;;;;;;;9.65;71.82;98803.94;10236138;23;20408;-81
2022/11/20 12:09:41;;;;;;;;;;;;;;;9.63;71.45;98797.03;10213712;23;20011;-81
2022/11/20 12:13:46;;;;;;;;;;;;;;;9.55;70.80;98796.28;10235438;23;19920;-80
2022/11/20 12:17:47;;;;;;;;;;;;;;;9.61;71.65;98794.47;10226354;23;19932;-81
2022/11/20 12:21:55;;;;;;;;;;;;;;;9.60;71.96;98791.91;10204581;23;20346;-80
2022/11/20 12:26:05;;;;;;;;;;;;;;;9.58;71.45;98794.50;10237260;23;19923;-81
2022/11/20 12:30:09;;;;;;;;;;;;;;;9.50;71.56;98809.25;10231568;23;19935;-77
2022/11/20 12:34:10;;;;;;;;;;;;;;;9.47;71.92;98790.28;10244998;23;20227;-80
2022/11/20 12:38:18;;;;;;;;;;;;;;;9.45;71.46;98782.53;10256655;23;19920;-81
2022/11/20 12:46:49;;;;;;;;;;;;;;;9.46;72.03;98768.72;10276178;23;20429;-81
2022/11/20 12:50:54;;;;;;;;;;;;;;;9.46;71.11;98776.47;10230644;23;19978;-81
2022/11/20 12:55:21;;;;;;;;;;;;;;;9.42;71.45;98768.75;10259777;23;19931;-79
2022/11/20 12:59:28;;;;;;;;;;;;;;;9.50;71.85;98756.56;10257753;23;19970;-82
2022/11/20 13:03:45;;;;;;;;;;;;;;;9.56;71.75;98757.38;10251873;23;20277;-79
2022/11/20 13:07:47;;;;;;;;;;;;;;;9.51;70.85;98740.16;10254805;23;19931;-81
2022/11/20 13:11:52;;;;;;;;;;;;;;;9.47;70.36;98739.31;10256965;23;19958;-82
2022/11/20 13:15:56;;;;;;;;;;;;;;;9.44;69.79;98730.72;10251769;23;20032;-80
2022/11/20 13:19:59;;;;;;;;;;;;;;;9.44;70.06;98710.88;10234483;23;19931;-81
2022/11/20 13:24:04;;;;;;;;;;;;;;;9.37;68.42;98710.09;10237346;23;19934;-82
2022/11/20 13:28:25;;;;;;;;;;;;;;;9.33;68.98;98699.75;10259279;23;19990;-82
2022/11/20 13:32:31;;;;;;;;;;;;;;;9.28;69.47;98696.34;10252280;23;20110;-80
2022/11/20 13:36:34;;;;;;;;;;;;;;;9.22;69.98;98693.84;10231822;23;19924;-81
2022/11/20 13:40:37;;;;;;;;;;;;;;;9.27;70.24;98690.31;10232069;23;20361;-80
2022/11/20 13:44:41;;;;;;;;;;;;;;;9.25;70.43;98684.28;10212440;23;19928;-82
2022/11/20 13:48:45;;;;;;;;;;;;;;;9.34;71.54;98678.19;10234371;23;19924;-82
2022/11/20 13:53:01;;;;;;;;;;;;;;;9.24;69.01;98676.53;10236722;23;19939;-81
2022/11/20 13:57:06;;;;;;;;;;;;;;;9.17;69.21;98674.91;10216395;23;19963;-80
2022/11/20 14:01:14;;;;;;;;;;;;;;;9.13;69.36;98671.47;10205980;23;19980;-79
2022/11/20 14:05:23;;;;;;;;;;;;;;;9.05;69.60;98674.13;10234285;23;19924;-81
2022/11/20 14:09:29;;;;;;;;;;;;;;;9.02;69.54;98670.72;10236260;23;20224;-80
2022/11/20 14:13:30;;;;;;;;;;;;;;;8.96;70.00;98666.44;10210335;23;19956;-81
2022/11/20 14:17:33;;;;;;;;;;;;;;;8.92;69.18;98661.31;10222701;23;19924;-82
2022/11/20 14:21:34;;;;;;;;;;;;;;;8.90;70.14;98656.16;10228956;23;19928;-80
2022/11/20 14:25:36;;;;;;;;;;;;;;;8.84;69.31;98656.22;10207518;23;19951;-81
2022/11/20 14:29:38;;;;;;;;;;;;;;;8.75;69.61;98651.97;10230894;23;19923;-80
2022/11/20 14:33:39;;;;;;;;;;;;;;;8.74;69.67;98657.16;10254194;23;19923;-81
2022/11/20 14:37:41;;;;;;;;;;;;;;;8.71;69.67;98649.44;10255753;23;20262;-80
2022/11/20 14:41:49;;;;;;;;;;;;;;;8.68;69.23;98644.28;10253655;23;19969;-81
2022/11/20 14:45:59;;;;;;;;;;;;;;;8.67;70.59;98643.44;10223067;23;19952;-81
2022/11/20 14:50:00;;;;;;;;;;;;;;;8.63;69.67;98643.50;10254170;23;19985;-80
2022/11/20 14:54:12;;;;;;;;;;;;;;;8.63;70.71;98635.72;10258405;23;19920;-81
2022/11/20 14:58:24;;;;;;;;;;;;;;;8.57;71.10;98628.84;10229772;23;19920;-80
2022/11/20 15:02:25;;;;;;;;;;;;;;;8.52;72.37;98630.63;10247817;23;20320;-81
2022/11/20 15:06:27;;;;;;;;;;;;;;;8.49;72.82;98622.91;10254751;23;19924;-80
2022/11/20 15:10:29;;;;;;;;;;;;;;;8.40;72.12;98620.38;10230870;23;19924;-80
2022/11/20 15:14:32;;;;;;;;;;;;;;;8.34;71.92;98607.50;10279239;23;20380;-80
2022/11/20 15:18:37;;;;;;;;;;;;;;;8.31;72.31;98605.78;10243953;23;19959;-80
2022/11/20 15:22:39;;;;;;;;;;;;;;;8.32;73.21;98606.63;10251635;23;19935;-80
2022/11/20 15:26:44;;;;;;;;;;;;;;;8.26;74.68;98614.41;10228971;23;19935;-81
2022/11/20 15:30:47;;;;;;;;;;;;;;;8.13;76.39;98609.34;10278601;23;20020;-79
2022/11/20 15:34:48;;;;;;;;;;;;;;;8.00;77.39;98605.13;10250032;23;19947;-79
2022/11/20 15:38:49;;;;;;;;;;;;;;;7.85;79.04;98598.31;10249481;23;19920;-78
2022/11/20 15:43:03;;;;;;;;;;;;;;;7.64;80.10;98601.03;10223987;23;19935;-77
2022/11/20 15:47:13;;;;;;;;;;;;;;;7.53;81.08;98595.91;10278414;23;19924;-78
2022/11/20 15:51:21;;;;;;;;;;;;;;;7.49;82.95;98593.38;10248715;23;19935;-77
2022/11/20 15:55:22;;;;;;;;;;;;;;;7.44;83.69;98590.81;10251963;23;20375;-77
2022/11/20 15:59:24;;;;;;;;;;;;;;;7.37;83.71;98580.53;10250261;23;19959;-77
2022/11/20 16:03:25;;;;;;;;;;;;;;;7.30;84.66;98571.94;10271406;23;19924;-78
2022/11/20 16:07:26;;;;;;;;;;;;;;;7.26;85.17;98573.69;10227902;23;19963;-78
2022/11/20 16:11:28;;;;;;;;;;;;;;;7.23;85.47;98575.44;10251060;23;20497;-76
2022/11/20 16:15:47;;;;;;;;;;;;;;;7.09;85.99;98570.31;10219293;23;19970;-78
2022/11/20 16:19:49;;;;;;;;;;;;;;;7.02;85.96;98568.63;10251319;23;19966;-78
2022/11/20 16:23:50;;;;;;;;;;;;;;;7.00;86.95;98559.16;10278901;23;19924;-78
2022/11/20 16:27:51;;;;;;;;;;;;;;;7.01;87.68;98563.47;10250713;23;19942;-77
2022/11/20 16:31:53;;;;;;;;;;;;;;;6.96;88.34;98566.91;10244688;23;19985;-80
2022/11/20 16:35:55;;;;;;;;;;;;;;;6.86;88.54;98560.06;10225654;23;19956;-76
2022/11/20 16:39:56;;;;;;;;;;;;;;;6.82;89.04;98571.28;10247485;23;20267;-76
2022/11/20 16:43:58;;;;;;;;;;;;;;;6.79;90.09;98566.09;10248966;23;19993;-76
2022/11/20 16:47:59;;;;;;;;;;;;;;;6.71;90.54;98559.25;10215390;23;20328;-76
2022/11/20 16:52:01;;;;;;;;;;;;;;;6.62;90.89;98550.66;10250142;23;19953;-76
2022/11/20 16:56:12;;;;;;;;;;;;;;;6.51;90.40;98548.97;10275433;23;19948;-77
2022/11/20 17:00:14;;;;;;;;;;;;;;;6.38;90.08;98544.69;10219100;23;19963;-78
2022/11/20 17:04:16;;;;;;;;;;;;;;;6.37;91.04;98549.00;10251119;23;20757;-77
2022/11/20 17:08:17;;;;;;;;;;;;;;;6.32;91.33;98543.84;10278509;23;19924;-77
2022/11/20 17:12:19;;;;;;;;;;;;;;;6.30;91.84;98544.72;10250708;23;19920;-77
2022/11/20 17:16:21;;;;;;;;;;;;;;;6.30;92.51;98543.00;10244864;23;19928;-77
2022/11/20 17:20:23;;;;;;;;;;;;;;;6.29;92.83;98540.44;10225395;23;19928;-77
2022/11/20 17:24:24;;;;;;;;;;;;;;;6.15;92.89;98539.56;10226621;23;19920;-77
2022/11/20 17:28:32;;;;;;;;;;;;;;;6.11;93.50;98538.72;10228151;23;19924;-77
2022/11/20 17:32:33;;;;;;;;;;;;;;;6.05;94.11;98538.69;10243839;23;19935;-77
2022/11/20 17:36:35;;;;;;;;;;;;;;;6.00;94.45;98528.41;10249795;23;20030;-76
2022/11/20 17:40:45;;;;;;;;;;;;;;;5.99;94.79;98526.69;10226486;23;19924;-77
2022/11/20 17:44:46;;;;;;;;;;;;;;;6.01;94.86;98521.53;10251619;23;19950;-77
2022/11/20 17:48:48;;;;;;;;;;;;;;;5.99;95.44;98520.69;10217729;23;19928;-78
2022/11/20 17:52:49;;;;;;;;;;;;;;;5.95;95.98;98518.97;10223546;23;20456;-78
2022/11/20 18:01:10;;;;;;;;;;;;;;;5.95;96.87;98506.09;10242103;23;20548;-78
2022/11/20 18:05:12;;;;;;;;;;;;;;;6.02;96.92;98513.78;10249089;23;19920;-77
2022/11/20 18:09:14;;;;;;;;;;;;;;;6.05;96.77;98500.03;10225737;23;19955;-77
2022/11/20 18:13:16;;;;;;;;;;;;;;;6.08;97.21;98510.34;10251428;23;19923;-78
2022/11/20 18:17:18;;;;;;;;;;;;;;;6.13;96.92;98506.06;10267349;23;20026;-78
2022/11/20 18:21:19;;;;;;;;;;;;;;;6.12;97.35;98498.34;10248320;23;19949;-77
2022/11/20 18:25:20;;;;;;;;;;;;;;;6.10;97.88;98506.03;10250417;23;19928;-78
2022/11/20 18:29:22;;;;;;;;;;;;;;;6.13;98.28;98502.63;10250737;23;19974;-77
2022/11/20 18:33:25;;;;;;;;;;;;;;;6.19;98.48;98503.47;10240846;23;19924;-77
2022/11/20 18:37:30;;;;;;;;;;;;;;;6.25;98.39;98506.03;10248529;23;19931;-76
2022/11/20 18:45:59;;;;;;;;;;;;;;;6.32;98.76;98502.59;10268732;23;19924;-77
2022/11/20 18:50:01;;;;;;;;;;;;;;;6.39;98.81;98494.84;10251050;23;19976;-78
2022/11/20 18:54:03;;;;;;;;;;;;;;;6.43;98.77;98486.22;10251801;23;19924;-78
2022/11/20 18:58:04;;;;;;;;;;;;;;;6.47;98.98;98499.13;10251580;23;19920;-78
2022/11/20 19:02:07;;;;;;;;;;;;;;;6.49;98.60;98496.56;10244189;23;19924;-78
2022/11/20 19:06:12;;;;;;;;;;;;;;;6.51;98.84;98500.00;10252809;23;20295;-78
2022/11/20 19:10:17;;;;;;;;;;;;;;;6.56;99.13;98491.38;10227321;23;19931;-78
2022/11/20 19:14:19;;;;;;;;;;;;;;;6.57;99.09;98475.03;10277682;23;20274;-78
2022/11/20 19:18:21;;;;;;;;;;;;;;;6.59;99.15;98473.28;10244057;23;19968;-78
2022/11/20 19:22:23;;;;;;;;;;;;;;;6.58;98.81;98476.75;10253607;23;19981;-78
2022/11/20 19:26:25;;;;;;;;;;;;;;;6.57;98.56;98481.91;10230523;23;19919;-78
2022/11/20 19:30:27;;;;;;;;;;;;;;;6.60;98.98;98492.22;10247155;23;19962;-77
2022/11/20 19:34:29;;;;;;;;;;;;;;;6.62;98.88;98491.34;10253994;23;19966;-77
2022/11/20 19:38:30;;;;;;;;;;;;;;;6.66;99.02;98500.81;10251712;23;19970;-78
2022/11/20 19:42:33;;;;;;;;;;;;;;;6.66;99.41;98502.53;10253118;23;20003;-78
2022/11/20 19:46:35;;;;;;;;;;;;;;;6.68;99.72;98497.34;10219949;23;19930;-77
2022/11/20 19:50:36;;;;;;;;;;;;;;;6.72;100.00;98493.91;10226456;23;19993;-77
2022/11/20 19:54:37;;;;;;;;;;;;;;;6.77;99.94;98492.16;10251359;23;19923;-77
2022/11/20 19:58:39;;;;;;;;;;;;;;;6.78;100.00;98506.75;10252960;23;20030;-78
2022/11/20 20:02:41;;;;;;;;;;;;;;;6.81;99.65;98512.75;10244874;23;19924;-77
2022/11/20 20:06:42;;;;;;;;;;;;;;;6.78;99.49;98511.94;10252302;23;19959;-78
2022/11/20 20:10:44;;;;;;;;;;;;;;;6.75;99.53;98515.38;10252978;23;19955;-78
2022/11/20 20:14:45;;;;;;;;;;;;;;;6.73;98.91;98521.41;10251874;23;19955;-78
2022/11/20 20:18:46;;;;;;;;;;;;;;;6.66;98.46;98518.00;10246887;23;20262;-78
2022/11/20 20:22:48;;;;;;;;;;;;;;;6.66;98.84;98524.03;10230338;23;19931;-78
2022/11/20 20:26:49;;;;;;;;;;;;;;;6.63;98.49;98526.56;10281590;23;19951;-78
2022/11/20 20:30:57;;;;;;;;;;;;;;;6.52;98.06;98530.94;10224472;23;19952;-79
2022/11/20 20:35:00;;;;;;;;;;;;;;;6.42;98.00;98528.34;10260066;23;19920;-78
2022/11/20 20:39:01;;;;;;;;;;;;;;;6.33;97.48;98534.41;10254479;23;19938;-79
2022/11/20 20:43:03;;;;;;;;;;;;;;;6.26;97.28;98538.69;10256259;23;20006;-78
2022/11/20 20:47:11;;;;;;;;;;;;;;;6.24;97.64;98535.25;10275205;23;19995;-80
2022/11/20 20:51:22;;;;;;;;;;;;;;;6.18;98.19;98539.56;10253943;23;20586;-78
2022/11/20 20:55:25;;;;;;;;;;;;;;;6.13;97.96;98557.63;10282332;23;19923;-78
2022/11/20 20:59:27;;;;;;;;;;;;;;;6.12;98.09;98560.19;10258485;23;19920;-78
2022/11/20 21:03:28;;;;;;;;;;;;;;;6.12;98.46;98545.59;10224848;23;20363;-79
2022/11/20 21:07:33;;;;;;;;;;;;;;;6.13;98.33;98538.72;10257113;23;20219;-79
2022/11/20 21:11:34;;;;;;;;;;;;;;;6.07;98.22;98536.97;10252464;23;19935;-79
2022/11/20 21:15:37;;;;;;;;;;;;;;;6.04;98.21;98544.72;10250257;23;19927;-78
2022/11/20 21:19:39;;;;;;;;;;;;;;;5.97;98.23;98541.28;10231869;23;19924;-77
2022/11/20 21:23:43;;;;;;;;;;;;;;;5.96;98.70;98542.16;10253926;23;19926;-78
2022/11/20 21:27:45;;;;;;;;;;;;;;;5.99;99.00;98539.56;10256554;23;19931;-77
2022/11/20 21:31:47;;;;;;;;;;;;;;;6.04;99.70;98536.97;10247004;23;20401;-77